Time;durP1;ratioP1;P1;durP2;ratioP2;P2;SDS_P1;SDS_P2;PMS_P1;PMS_P2;Temp;Humidity;BMP_temperature;BMP_pressure;BME280_temperature;BME280_humidity;BME280_pressure;Samples;Min_cycle;Max_cycle;Signal;HPM_P1;HPM_P2
2023/08/24 00:00:45;;;;;;;9.95;5.85;;;;;;;;;;8468978;27;20542;-88
2023/08/24 00:05:07;;;;;;;;;;;;;;;;;;8459682;27;20082;-87
2023/08/24 00:09:10;;;;;;;10.48;4.70;;;;;;;;;;8467633;28;20466;-87
2023/08/24 00:13:15;;;;;;;9.60;5.25;;;;;;;;;;8466861;28;20540;-88
2023/08/24 00:17:17;;;;;;;8.05;4.95;;;;;;;;;;8460132;28;20078;-88
2023/08/24 00:21:22;;;;;;;9.48;5.22;;;;;;;;;;8466658;28;20823;-88
2023/08/24 00:25:25;;;;;;;8.32;5.25;;;;;;;;;;8453289;27;20402;-88
2023/08/24 00:29:29;;;;;;;7.93;5.32;;;;;;;;;;8471187;27;20044;-89
2023/08/24 00:33:32;;;;;;;8.68;5.43;;;;;;;;;;8496056;27;20126;-88
2023/08/24 00:37:35;;;;;;;10.27;5.28;;;;;;;;;;8465702;28;20059;-88
2023/08/24 00:41:38;;;;;;;9.95;5.78;;;;;;;;;;8463622;28;20093;-88
2023/08/24 00:45:43;;;;;;;9.75;5.05;;;;;;;;;;8466072;28;20069;-88
2023/08/24 00:49:45;;;;;;;9.13;5.80;;;;;;;;;;8453706;28;20052;-88
2023/08/24 00:53:48;;;;;;;7.45;5.35;;;;;;;;;;8465964;28;20063;-87
2023/08/24 00:57:52;;;;;;;8.07;5.05;;;;;;;;;;8465947;28;20122;-87
2023/08/24 01:01:57;;;;;;;6.60;4.65;;;;;;;;;;8458384;28;20052;-88
2023/08/24 01:06:00;;;;;;;9.98;5.75;;;;;;;;;;8465611;28;20559;-87
2023/08/24 01:10:04;;;;;;;7.97;4.97;;;;;;;;;;8465314;28;20118;-88
2023/08/24 01:14:15;;;;;;;8.73;4.85;;;;;;;;;;8465238;28;20092;-88
2023/08/24 01:18:21;;;;;;;10.43;5.23;;;;;;;;;;8464950;28;20127;-88
2023/08/24 01:22:35;;;;;;;8.07;4.70;;;;;;;;;;8465145;28;20047;-88
2023/08/24 01:26:42;;;;;;;7.53;4.60;;;;;;;;;;8464846;28;20047;-88
2023/08/24 01:30:46;;;;;;;7.57;4.95;;;;;;;;;;8465132;28;20048;-88
2023/08/24 01:34:48;;;;;;;8.50;4.80;;;;;;;;;;8464624;28;20048;-88
2023/08/24 01:38:58;;;;;;;8.35;4.95;;;;;;;;;;8464252;28;20051;-87
2023/08/24 01:43:06;;;;;;;10.85;5.18;;;;;;;;;;8464524;28;20059;-88
2023/08/24 01:47:11;;;;;;;7.70;4.82;;;;;;;;;;8464550;28;20047;-88
2023/08/24 01:51:15;;;;;;;8.48;5.00;;;;;;;;;;8463951;28;20529;-88
2023/08/24 01:55:19;;;;;;;10.25;5.07;;;;;;;;;;8463889;28;20054;-87
2023/08/24 01:59:24;;;;;;;8.15;4.95;;;;;;;;;;8450259;28;20043;-88
2023/08/24 02:03:27;;;;;;;7.97;5.40;;;;;;;;;;8463776;28;20509;-88
2023/08/24 02:07:29;;;;;;;7.22;5.60;;;;;;;;;;8450392;28;20040;-88
2023/08/24 02:11:32;;;;;;;17.55;6.50;;;;;;;;;;8463498;28;20131;-88
2023/08/24 02:15:36;;;;;;;13.13;5.50;;;;;;;;;;8432225;28;20395;-87
2023/08/24 02:19:41;;;;;;;7.30;4.97;;;;;;;;;;8463537;28;20044;-89
2023/08/24 02:23:43;;;;;;;7.32;5.07;;;;;;;;;;8450068;28;20048;-88
2023/08/24 02:27:47;;;;;;;10.10;5.35;;;;;;;;;;8463234;28;20043;-89
2023/08/24 02:31:52;;;;;;;7.60;5.15;;;;;;;;;;8449693;28;20122;-88
2023/08/24 02:35:55;;;;;;;23.88;11.52;;;;;;;;;;8462450;28;20046;-88
2023/08/24 02:39:58;;;;;;;11.02;6.75;;;;;;;;;;8462706;28;20124;-88
2023/08/24 02:44:00;;;;;;;11.90;5.75;;;;;;;;;;8462430;28;20423;-88
2023/08/24 02:48:06;;;;;;;9.55;5.97;;;;;;;;;;8449101;28;20119;-89
2023/08/24 02:52:09;;;;;;;11.93;6.53;;;;;;;;;;8462131;28;20104;-88
2023/08/24 02:56:12;;;;;;;9.82;6.57;;;;;;;;;;8457228;28;20103;-88
2023/08/24 03:00:14;;;;;;;11.00;6.40;;;;;;;;;;8462287;28;20101;-89
2023/08/24 03:04:19;;;;;;;10.77;6.32;;;;;;;;;;8462604;28;20082;-88
2023/08/24 03:08:22;;;;;;;9.60;6.47;;;;;;;;;;8462112;28;20048;-88
2023/08/24 03:12:24;;;;;;;11.32;6.22;;;;;;;;;;8462321;28;20040;-88
2023/08/24 03:16:27;;;;;;;10.32;6.40;;;;;;;;;;8461849;28;20126;-89
2023/08/24 03:20:32;;;;;;;14.68;6.57;;;;;;;;;;8461927;28;20046;-88
2023/08/24 03:24:34;;;;;;;14.30;6.30;;;;;;;;;;8462809;28;20419;-88
2023/08/24 03:28:38;;;;;;;13.48;7.05;;;;;;;;;;8496026;28;20054;-89
2023/08/24 03:32:41;;;;;;;8.63;6.05;;;;;;;;;;8495581;28;20490;-90
2023/08/24 03:36:45;;;;;;;9.38;6.03;;;;;;;;;;8496345;28;20073;-89
2023/08/24 03:40:48;;;;;;;10.98;7.10;;;;;;;;;;8495447;28;20050;-89
2023/08/24 03:44:51;;;;;;;13.43;7.18;;;;;;;;;;8496054;28;20043;-89
2023/08/24 03:48:53;;;;;;;10.60;6.88;;;;;;;;;;8494815;28;20039;-90
2023/08/24 03:52:58;;;;;;;11.65;7.05;;;;;;;;;;8495024;28;20047;-89
2023/08/24 03:57:00;;;;;;;12.32;7.07;;;;;;;;;;8495017;28;20054;-90
2023/08/24 04:01:03;;;;;;;10.63;5.95;;;;;;;;;;8498444;27;20137;-89
2023/08/24 04:05:06;;;;;;;9.60;5.88;;;;;;;;;;8501015;27;20619;-89
2023/08/24 04:09:10;;;;;;;10.25;6.15;;;;;;;;;;8487861;27;20039;-90
2023/08/24 04:13:13;;;;;;;12.77;6.40;;;;;;;;;;8466976;28;20126;-88
2023/08/24 04:17:16;;;;;;;10.30;6.05;;;;;;;;;;8467420;28;20610;-89
2023/08/24 04:21:19;;;;;;;8.73;5.85;;;;;;;;;;8464592;28;20100;-88
2023/08/24 04:25:23;;;;;;;10.52;5.57;;;;;;;;;;8466388;27;20114;-89
2023/08/24 04:29:26;;;;;;;8.50;5.82;;;;;;;;;;8465272;27;20063;-88
2023/08/24 04:33:29;;;;;;;10.80;5.45;;;;;;;;;;8466479;28;20047;-88
2023/08/24 04:37:32;;;;;;;10.18;4.95;;;;;;;;;;8466472;28;20065;-88
2023/08/24 04:41:36;;;;;;;10.25;5.47;;;;;;;;;;8466509;28;20055;-88
2023/08/24 04:45:39;;;;;;;8.88;4.60;;;;;;;;;;8466057;28;20407;-88
2023/08/24 04:49:42;;;;;;;11.48;4.38;;;;;;;;;;8465927;27;20517;-89
2023/08/24 04:53:44;;;;;;;9.80;4.32;;;;;;;;;;8493169;27;20554;-88
2023/08/24 04:57:48;;;;;;;11.77;4.65;;;;;;;;;;8460792;27;20047;-88
2023/08/24 05:01:51;;;;;;;7.35;3.83;;;;;;;;;;8465647;28;20479;-88
2023/08/24 05:05:54;;;;;;;19.33;3.92;;;;;;;;;;8465057;28;20475;-88
2023/08/24 05:09:57;;;;;;;6.85;3.50;;;;;;;;;;8464333;28;20047;-88
2023/08/24 05:14:02;;;;;;;13.52;3.63;;;;;;;;;;8463792;28;20475;-88
2023/08/24 05:18:05;;;;;;;19.00;3.50;;;;;;;;;;8461584;28;20096;-89
2023/08/24 05:22:08;;;;;;;17.90;3.45;;;;;;;;;;8457228;27;20537;-89
2023/08/24 05:26:10;;;;;;;13.70;3.80;;;;;;;;;;8441529;28;20047;-89
2023/08/24 05:30:20;;;;;;;8.85;3.20;;;;;;;;;;8464261;28;20048;-89
2023/08/24 05:34:29;;;;;;;14.23;3.35;;;;;;;;;;8464875;28;20032;-89
2023/08/24 05:38:33;;;;;;;8.63;3.17;;;;;;;;;;8443071;28;20059;-89
2023/08/24 05:42:36;;;;;;;10.80;3.47;;;;;;;;;;8463986;28;20510;-89
2023/08/24 05:46:41;;;;;;;12.23;3.47;;;;;;;;;;8458095;27;20506;-88
2023/08/24 05:50:44;;;;;;;7.15;3.33;;;;;;;;;;8482225;27;20134;-88
2023/08/24 05:54:47;;;;;;;6.00;3.15;;;;;;;;;;8490015;27;20039;-89
2023/08/24 05:58:50;;;;;;;7.13;3.60;;;;;;;;;;8498174;27;20130;-89
2023/08/24 06:02:55;;;;;;;8.88;3.38;;;;;;;;;;8477663;27;20043;-89
2023/08/24 06:06:58;;;;;;;11.45;3.28;;;;;;;;;;8463460;28;20043;-88
2023/08/24 06:11:01;;;;;;;8.73;3.78;;;;;;;;;;8461011;27;20040;-90
2023/08/24 06:15:04;;;;;;;6.72;3.05;;;;;;;;;;8463197;28;20047;-89
2023/08/24 06:19:09;;;;;;;9.52;3.38;;;;;;;;;;8445140;28;20452;-90
2023/08/24 06:23:13;;;;;;;6.70;3.60;;;;;;;;;;8462168;28;20050;-89
2023/08/24 06:27:16;;;;;;;8.45;3.38;;;;;;;;;;8455775;27;20040;-89
2023/08/24 06:31:18;;;;;;;7.78;3.10;;;;;;;;;;8456586;28;20143;-88
2023/08/24 06:35:23;;;;;;;6.55;2.53;;;;;;;;;;8446725;27;20043;-88
2023/08/24 06:39:26;;;;;;;6.78;2.80;;;;;;;;;;8451421;27;20078;-88
2023/08/24 06:43:29;;;;;;;5.22;2.17;;;;;;;;;;8462372;28;20177;-88
2023/08/24 06:47:32;;;;;;;4.03;2.08;;;;;;;;;;8461945;28;20042;-89
2023/08/24 06:51:36;;;;;;;4.75;2.17;;;;;;;;;;8460849;28;20055;-88
2023/08/24 06:55:40;;;;;;;3.60;2.00;;;;;;;;;;8441047;28;20044;-88
2023/08/24 06:59:43;;;;;;;4.00;2.03;;;;;;;;;;8461726;28;20054;-88
2023/08/24 07:03:46;;;;;;;5.72;2.15;;;;;;;;;;8461739;28;20054;-87
2023/08/24 07:07:51;;;;;;;4.65;2.28;;;;;;;;;;8462202;28;20148;-88
2023/08/24 07:11:54;;;;;;;3.40;2.00;;;;;;;;;;8468451;28;20051;-87
2023/08/24 07:15:59;;;;;;;4.13;1.95;;;;;;;;;;8489299;28;20041;-88
2023/08/24 07:20:05;;;;;;;4.90;2.10;;;;;;;;;;8493871;28;20048;-86
2023/08/24 07:24:09;;;;;;;3.65;2.03;;;;;;;;;;8494504;28;20498;-87
2023/08/24 07:28:12;;;;;;;3.67;1.85;;;;;;;;;;8494612;28;20122;-87
2023/08/24 07:32:15;;;;;;;4.35;2.05;;;;;;;;;;8495385;28;20045;-87
2023/08/24 07:36:18;;;;;;;4.53;2.10;;;;;;;;;;8500603;27;20051;-87
2023/08/24 07:40:23;;;;;;;6.70;2.17;;;;;;;;;;8501345;27;20504;-87
2023/08/24 07:44:26;;;;;;;7.07;2.40;;;;;;;;;;8502294;27;20081;-87
2023/08/24 07:48:29;;;;;;;3.70;2.25;;;;;;;;;;8501789;27;20067;-87
2023/08/24 07:52:32;;;;;;;4.47;2.28;;;;;;;;;;8500511;27;20078;-87
2023/08/24 07:56:36;;;;;;;5.55;2.00;;;;;;;;;;8501441;27;20543;-87
2023/08/24 08:00:39;;;;;;;3.40;2.10;;;;;;;;;;8501062;27;20047;-87
2023/08/24 08:04:42;;;;;;;3.65;2.10;;;;;;;;;;8501048;27;20053;-87
2023/08/24 08:08:46;;;;;;;5.97;2.20;;;;;;;;;;8497430;27;20077;-86
2023/08/24 08:12:50;;;;;;;3.80;1.98;;;;;;;;;;8491404;27;20047;-87
2023/08/24 08:16:53;;;;;;;3.20;1.70;;;;;;;;;;8482685;27;20122;-86
2023/08/24 08:20:56;;;;;;;3.85;2.10;;;;;;;;;;8500576;27;20055;-87
2023/08/24 08:24:59;;;;;;;5.55;1.90;;;;;;;;;;8474777;27;20050;-87
2023/08/24 08:29:03;;;;;;;3.38;2.03;;;;;;;;;;8462675;28;20048;-87
2023/08/24 08:33:06;;;;;;;3.70;1.50;;;;;;;;;;8466727;28;20055;-87
2023/08/24 08:37:09;;;;;;;5.50;2.00;;;;;;;;;;8454273;28;20065;-87
2023/08/24 08:41:12;;;;;;;4.47;2.10;;;;;;;;;;8463736;28;20056;-87
2023/08/24 08:45:19;;;;;;;4.00;2.17;;;;;;;;;;8468371;27;20131;-87
2023/08/24 08:49:22;;;;;;;2.38;1.50;;;;;;;;;;8465548;28;20082;-87
2023/08/24 08:53:25;;;;;;;2.83;1.73;;;;;;;;;;8466297;28;20043;-87
2023/08/24 08:57:28;;;;;;;6.22;1.80;;;;;;;;;;8465684;28;20482;-87
2023/08/24 09:01:33;;;;;;;4.03;1.95;;;;;;;;;;8459856;28;20153;-86
2023/08/24 09:05:38;;;;;;;5.05;1.70;;;;;;;;;;8465393;28;20043;-87
2023/08/24 09:09:41;;;;;;;6.38;2.13;;;;;;;;;;8461104;28;20044;-88
2023/08/24 09:13:44;;;;;;;6.20;2.30;;;;;;;;;;8462974;28;20149;-88
2023/08/24 09:17:50;;;;;;;4.38;2.20;;;;;;;;;;8459953;28;20079;-87
2023/08/24 09:21:58;;;;;;;4.68;2.00;;;;;;;;;;8464373;28;20127;-87
2023/08/24 09:26:01;;;;;;;4.60;1.70;;;;;;;;;;8464568;28;20055;-88
2023/08/24 09:30:05;;;;;;;4.70;1.90;;;;;;;;;;8464292;28;20039;-88
2023/08/24 09:34:10;;;;;;;3.45;2.00;;;;;;;;;;8461304;28;20063;-88
2023/08/24 09:38:19;;;;;;;4.43;2.08;;;;;;;;;;8464104;28;20136;-88
2023/08/24 09:42:25;;;;;;;;;;;;;;;;;;8464540;28;20054;-88
2023/08/24 09:46:28;;;;;;;3.38;1.98;;;;;;;;;;8456661;27;20018;-88
2023/08/24 09:50:34;;;;;;;2.85;1.90;;;;;;;;;;8461495;27;20055;-88
2023/08/24 09:54:38;;;;;;;2.55;1.88;;;;;;;;;;8481354;27;20069;-87
2023/08/24 09:58:43;;;;;;;3.13;1.83;;;;;;;;;;8464442;27;20453;-87
2023/08/24 10:02:51;;;;;;;4.35;2.00;;;;;;;;;;8448939;27;20047;-88
2023/08/24 10:06:59;;;;;;;3.60;1.90;;;;;;;;;;8459604;28;20055;-87
2023/08/24 10:11:02;;;;;;;3.95;2.10;;;;;;;;;;8463597;28;20050;-88
2023/08/24 10:15:14;;;;;;;9.82;2.58;;;;;;;;;;8439176;27;20043;-89
2023/08/24 10:19:18;;;;;;;7.65;2.53;;;;;;;;;;8457997;27;20104;-88
2023/08/24 10:23:30;;;;;;;5.28;2.25;;;;;;;;;;8458339;28;20126;-88
2023/08/24 10:27:36;;;;;;;3.42;2.35;;;;;;;;;;8444711;28;20078;-88
2023/08/24 10:31:42;;;;;;;2.97;1.90;;;;;;;;;;8457973;27;20115;-88
2023/08/24 10:35:52;;;;;;;4.38;2.20;;;;;;;;;;8443242;28;20479;-88
2023/08/24 10:39:59;;;;;;;7.03;2.43;;;;;;;;;;8457192;28;20047;-87
2023/08/24 10:44:08;;;;;;;2.58;1.90;;;;;;;;;;8437314;28;20811;-88
2023/08/24 10:48:12;;;;;;;4.27;1.90;;;;;;;;;;8457685;28;20050;-87
2023/08/24 10:52:22;;;;;;;2.35;1.80;;;;;;;;;;8446486;28;20126;-88
2023/08/24 10:56:33;;;;;;;5.63;2.03;;;;;;;;;;8449622;28;20057;-88
2023/08/24 11:00:36;;;;;;;5.68;2.13;;;;;;;;;;8460016;28;20377;-88
2023/08/24 11:04:39;;;;;;;5.93;2.35;;;;;;;;;;8460578;28;20158;-87
2023/08/24 11:08:46;;;;;;;6.35;2.13;;;;;;;;;;8456770;28;20087;-88
2023/08/24 11:13:19;;;;;;;2.97;2.05;;;;;;;;;;8460063;28;20054;-87
2023/08/24 11:17:32;;;;;;;5.70;2.10;;;;;;;;;;8458575;28;20040;-87
2023/08/24 11:21:36;;;;;;;3.53;2.30;;;;;;;;;;8451881;28;20048;-87
2023/08/24 11:25:40;;;;;;;4.05;2.17;;;;;;;;;;8464652;27;20418;-87
2023/08/24 11:29:44;;;;;;;4.18;2.45;;;;;;;;;;8464664;28;20044;-87
2023/08/24 11:33:47;;;;;;;4.28;2.10;;;;;;;;;;8454539;28;20050;-89
2023/08/24 11:37:53;;;;;;;5.03;2.58;;;;;;;;;;8467997;28;20047;-89
2023/08/24 11:41:59;;;;;;;3.58;2.40;;;;;;;;;;8489342;27;20059;-88
2023/08/24 11:46:05;;;;;;;4.45;2.63;;;;;;;;;;8469087;27;20154;-90
2023/08/24 11:50:14;;;;;;;5.18;2.97;;;;;;;;;;8444335;27;20056;-91
2023/08/24 11:54:18;;;;;;;3.35;2.33;;;;;;;;;;8450489;27;20115;-91
2023/08/24 11:58:27;;;;;;;4.88;2.47;;;;;;;;;;8452907;27;20491;-89
2023/08/24 12:02:35;;;;;;;6.10;2.40;;;;;;;;;;8459671;27;20127;-91
2023/08/24 12:06:39;;;;;;;3.65;2.60;;;;;;;;;;8501229;27;20045;-89
2023/08/24 12:10:45;;;;;;;6.78;2.40;;;;;;;;;;8478403;27;20055;-88
2023/08/24 12:14:49;;;;;;;3.72;2.90;;;;;;;;;;8452267;28;20044;-88
2023/08/24 12:18:55;;;;;;;3.50;2.58;;;;;;;;;;8451661;27;20131;-88
2023/08/24 12:23:00;;;;;;;8.60;2.83;;;;;;;;;;8451602;28;20051;-88
2023/08/24 12:27:03;;;;;;;3.67;2.40;;;;;;;;;;8481226;27;20479;-88
2023/08/24 12:31:07;;;;;;;5.43;2.60;;;;;;;;;;8478295;27;20043;-89
2023/08/24 12:35:18;;;;;;;5.50;2.63;;;;;;;;;;8460893;27;20055;-89
2023/08/24 12:39:24;;;;;;;4.97;3.20;;;;;;;;;;8434723;28;20051;-89
2023/08/24 12:43:27;;;;;;;4.05;2.85;;;;;;;;;;8464366;28;20043;-88
2023/08/24 12:47:30;;;;;;;5.07;2.78;;;;;;;;;;8465334;28;20040;-90
2023/08/24 12:51:34;;;;;;;5.75;2.78;;;;;;;;;;8464795;28;20059;-90
2023/08/24 12:55:39;;;;;;;5.53;2.72;;;;;;;;;;8465439;28;20047;-89
2023/08/24 12:59:43;;;;;;;4.20;2.80;;;;;;;;;;8475695;27;20071;-90
2023/08/24 13:03:46;;;;;;;3.95;2.58;;;;;;;;;;8480693;27;20120;-88
2023/08/24 13:07:50;;;;;;;6.10;2.85;;;;;;;;;;8481802;27;20043;-90
2023/08/24 13:11:53;;;;;;;4.47;2.80;;;;;;;;;;8499071;27;20043;-90
2023/08/24 13:15:56;;;;;;;7.53;2.83;;;;;;;;;;8478947;27;20043;-90
2023/08/24 13:19:59;;;;;;;4.78;2.60;;;;;;;;;;8462987;28;20046;-89
2023/08/24 13:24:04;;;;;;;4.88;2.85;;;;;;;;;;8476653;27;20395;-88
2023/08/24 13:28:07;;;;;;;4.88;2.92;;;;;;;;;;8463123;27;20079;-88
2023/08/24 13:32:10;;;;;;;8.38;3.55;;;;;;;;;;8481341;27;20063;-91
2023/08/24 13:36:13;;;;;;;3.58;2.45;;;;;;;;;;8499504;27;20562;-90
2023/08/24 13:40:18;;;;;;;6.82;3.38;;;;;;;;;;8497119;27;20046;-89
2023/08/24 13:44:21;;;;;;;7.35;2.72;;;;;;;;;;8489638;27;20498;-87
2023/08/24 13:48:25;;;;;;;5.28;2.95;;;;;;;;;;8458426;27;20046;-90
2023/08/24 13:52:28;;;;;;;3.78;2.70;;;;;;;;;;8463653;28;20122;-90
2023/08/24 13:56:32;;;;;;;11.65;3.50;;;;;;;;;;8451870;27;20050;-86
2023/08/24 14:00:35;;;;;;;4.65;3.00;;;;;;;;;;8443549;27;20048;-88
2023/08/24 14:04:38;;;;;;;6.20;2.92;;;;;;;;;;8445856;28;20122;-88
2023/08/24 14:08:42;;;;;;;8.10;2.67;;;;;;;;;;8463734;28;20051;-89
2023/08/24 14:12:46;;;;;;;4.78;3.13;;;;;;;;;;8461501;27;20068;-90
2023/08/24 14:16:55;;;;;;;6.50;3.22;;;;;;;;;;8463498;28;20088;-89
2023/08/24 14:20:59;;;;;;;4.93;3.00;;;;;;;;;;8444861;28;20058;-90
2023/08/24 14:25:01;;;;;;;6.38;3.00;;;;;;;;;;8443963;28;20079;-86
2023/08/24 14:29:06;;;;;;;9.52;3.10;;;;;;;;;;8459688;28;20047;-88
2023/08/24 14:33:09;;;;;;;5.82;3.38;;;;;;;;;;8469439;27;20137;-88
2023/08/24 14:37:12;;;;;;;7.07;2.90;;;;;;;;;;8494734;27;20039;-89
2023/08/24 14:41:16;;;;;;;5.13;2.90;;;;;;;;;;8495667;27;20184;-86
2023/08/24 14:45:20;;;;;;;5.82;3.00;;;;;;;;;;8494840;27;20577;-89
2023/08/24 14:49:24;;;;;;;6.63;2.90;;;;;;;;;;8483591;27;20532;-90
2023/08/24 14:53:29;;;;;;;10.13;3.00;;;;;;;;;;8461796;27;20132;-91
2023/08/24 14:57:32;;;;;;;8.85;3.38;;;;;;;;;;8429732;28;20047;-89
2023/08/24 15:01:39;;;;;;;7.22;3.13;;;;;;;;;;8438651;28;20051;-89
2023/08/24 15:05:45;;;;;;;6.32;3.45;;;;;;;;;;8442595;28;20456;-89
2023/08/24 15:09:48;;;;;;;6.43;3.40;;;;;;;;;;8454111;28;20140;-89
2023/08/24 15:13:51;;;;;;;6.03;3.10;;;;;;;;;;8457560;28;20047;-90
2023/08/24 15:17:56;;;;;;;6.43;3.13;;;;;;;;;;8457404;28;20044;-89
2023/08/24 15:22:00;;;;;;;6.32;3.22;;;;;;;;;;8451393;28;20055;-88
2023/08/24 15:26:03;;;;;;;10.23;3.40;;;;;;;;;;8458073;28;20048;-90
2023/08/24 15:30:08;;;;;;;7.38;3.33;;;;;;;;;;8470985;28;20566;-89
2023/08/24 15:34:12;;;;;;;8.70;3.30;;;;;;;;;;8450784;28;20039;-88
2023/08/24 15:38:15;;;;;;;7.18;3.88;;;;;;;;;;8447754;28;20134;-89
2023/08/24 15:42:18;;;;;;;8.85;3.35;;;;;;;;;;8459567;28;20065;-89
2023/08/24 15:46:21;;;;;;;6.88;3.60;;;;;;;;;;8456181;28;20519;-88
2023/08/24 15:50:37;;;;;;;6.63;3.40;;;;;;;;;;8470833;28;20134;-89
2023/08/24 15:54:40;;;;;;;4.32;3.08;;;;;;;;;;8455985;27;20042;-90
2023/08/24 15:58:44;;;;;;;4.63;3.38;;;;;;;;;;8435775;28;20055;-89
2023/08/24 16:02:47;;;;;;;4.20;3.05;;;;;;;;;;8452503;27;20047;-88
2023/08/24 16:06:52;;;;;;;4.50;3.10;;;;;;;;;;8459339;27;20145;-89
2023/08/24 16:10:57;;;;;;;5.38;3.22;;;;;;;;;;8455673;27;20063;-93
2023/08/24 16:15:05;;;;;;;8.05;3.40;;;;;;;;;;8463222;28;20484;-89
2023/08/24 16:19:08;;;;;;;6.40;3.30;;;;;;;;;;8448242;27;20090;-90
2023/08/24 16:36:50;;;;;;;7.68;3.97;;;;;;;;;;857747;26;20342;-88
2023/08/24 16:40:55;;;;;;;6.78;4.05;;;;;;;;;;8318358;28;20062;-90
2023/08/24 16:44:58;;;;;;;7.38;4.32;;;;;;;;;;8318039;28;20064;-91
2023/08/24 16:49:01;;;;;;;8.10;4.10;;;;;;;;;;8327217;28;20084;-90
2023/08/24 16:53:04;;;;;;;8.60;4.03;;;;;;;;;;8317883;28;20464;-89
2023/08/24 16:57:09;;;;;;;8.93;4.85;;;;;;;;;;8319903;28;20096;-88
2023/08/24 17:01:12;;;;;;;8.95;5.10;;;;;;;;;;8317602;28;20915;-88
2023/08/24 17:05:17;;;;;;;9.18;5.45;;;;;;;;;;8327787;28;20640;-90
2023/08/24 17:09:20;;;;;;;8.95;5.45;;;;;;;;;;8320401;28;20059;-88
2023/08/24 17:13:25;;;;;;;10.07;6.28;;;;;;;;;;8377707;23;20201;-89
2023/08/24 17:17:29;;;;;;;8.60;5.97;;;;;;;;;;8334839;28;20060;-90
2023/08/24 17:26:17;;;;;;;12.18;7.25;;;;;;;;;;8292359;28;20068;-89
2023/08/24 17:30:23;;;;;;;19.63;10.95;;;;;;;;;;8329389;28;20481;-89
2023/08/24 17:34:26;;;;;;;26.83;11.13;;;;;;;;;;8344984;28;20053;-91
2023/08/24 17:38:30;;;;;;;11.85;8.15;;;;;;;;;;8364465;28;20049;-88
2023/08/24 17:42:33;;;;;;;13.98;8.63;;;;;;;;;;8363708;28;20053;-90
2023/08/24 17:46:37;;;;;;;12.63;8.90;;;;;;;;;;8364641;28;20080;-87
2023/08/24 17:50:41;;;;;;;15.35;10.25;;;;;;;;;;8363947;28;20156;-90
2023/08/24 17:54:45;;;;;;;14.88;7.88;;;;;;;;;;8350641;28;20059;-91
2023/08/24 17:58:51;;;;;;;21.95;11.93;;;;;;;;;;8363918;28;20114;-91
2023/08/24 18:02:57;;;;;;;13.70;8.65;;;;;;;;;;8356075;28;20077;-90
2023/08/24 18:07:01;;;;;;;9.75;7.03;;;;;;;;;;8329976;28;20053;-89
2023/08/24 18:11:06;;;;;;;16.70;9.30;;;;;;;;;;8338571;28;20124;-88
2023/08/24 18:15:09;;;;;;;18.48;10.10;;;;;;;;;;8384046;28;20773;-89
2023/08/24 18:19:15;;;;;;;21.73;11.77;;;;;;;;;;8382099;28;20060;-87
2023/08/24 18:23:20;;;;;;;19.85;12.38;;;;;;;;;;8383598;28;20061;-91
2023/08/24 18:27:26;;;;;;;21.98;13.82;;;;;;;;;;8389440;28;20121;-91
2023/08/24 18:31:29;;;;;;;11.88;9.02;;;;;;;;;;8359368;28;20139;-87
2023/08/24 18:35:35;;;;;;;13.35;9.05;;;;;;;;;;8354648;28;20404;-91
2023/08/24 18:39:39;;;;;;;10.05;8.38;;;;;;;;;;8380197;28;20492;-91
2023/08/24 18:43:43;;;;;;;12.07;7.95;;;;;;;;;;8362358;28;20523;-90
2023/08/24 18:47:47;;;;;;;18.60;10.68;;;;;;;;;;8363047;28;20076;-90
2023/08/24 18:51:54;;;;;;;14.90;11.07;;;;;;;;;;8339617;28;20077;-89
2023/08/24 18:56:01;;;;;;;16.08;11.95;;;;;;;;;;8355702;28;20053;-88
2023/08/24 19:00:06;;;;;;;15.15;12.40;;;;;;;;;;8369596;28;20095;-88
2023/08/24 19:04:10;;;;;;;14.38;12.85;;;;;;;;;;8382671;28;20497;-88
2023/08/24 19:08:17;;;;;;;16.45;13.77;;;;;;;;;;8395726;28;20079;-90
2023/08/24 19:12:20;;;;;;;70.55;27.70;;;;;;;;;;8382016;28;20507;-87
2023/08/24 19:16:24;;;;;;;18.23;12.65;;;;;;;;;;8368978;28;20068;-91
2023/08/24 19:20:29;;;;;;;18.13;11.88;;;;;;;;;;8368074;28;20413;-89
2023/08/24 19:24:34;;;;;;;15.18;10.32;;;;;;;;;;8382315;28;20044;-91
2023/08/24 19:28:38;;;;;;;13.68;10.77;;;;;;;;;;8382756;28;20129;-91
2023/08/24 19:32:42;;;;;;;12.10;9.82;;;;;;;;;;8400930;28;20059;-90
2023/08/24 19:36:46;;;;;;;13.32;10.23;;;;;;;;;;8388235;28;20076;-91
2023/08/24 19:40:53;;;;;;;17.55;12.23;;;;;;;;;;8402072;28;20547;-90
2023/08/24 19:44:57;;;;;;;12.55;10.43;;;;;;;;;;8401096;28;20131;-91
2023/08/24 19:49:01;;;;;;;11.18;9.05;;;;;;;;;;8401611;28;20500;-91
2023/08/24 19:53:08;;;;;;;13.95;10.80;;;;;;;;;;8401650;28;20060;-91
2023/08/24 19:57:16;;;;;;;13.63;10.90;;;;;;;;;;8400528;28;20056;-91
2023/08/24 20:01:20;;;;;;;15.48;10.77;;;;;;;;;;8401335;28;20102;-91
2023/08/24 20:05:26;;;;;;;14.35;11.05;;;;;;;;;;8397843;28;20085;-91
2023/08/24 20:09:30;;;;;;;15.32;10.65;;;;;;;;;;8367957;28;20103;-91
2023/08/24 20:13:36;;;;;;;13.55;10.43;;;;;;;;;;8373077;28;20053;-90
2023/08/24 20:17:44;;;;;;;16.23;11.60;;;;;;;;;;8395546;28;20158;-91
2023/08/24 20:21:48;;;;;;;17.63;12.30;;;;;;;;;;8400479;28;20090;-91
2023/08/24 20:25:52;;;;;;;15.18;11.73;;;;;;;;;;8375809;28;20516;-91
2023/08/24 20:29:57;;;;;;;14.93;13.02;;;;;;;;;;8398312;28;20074;-88
2023/08/24 20:34:01;;;;;;;15.10;12.20;;;;;;;;;;8388477;28;20060;-92
2023/08/24 20:38:05;;;;;;;14.23;11.73;;;;;;;;;;8380230;28;20124;-91
2023/08/24 20:42:15;;;;;;;14.32;11.38;;;;;;;;;;8390552;28;20064;-91
2023/08/24 20:46:20;;;;;;;14.10;11.25;;;;;;;;;;8386415;28;20139;-91
2023/08/24 20:50:24;;;;;;;13.00;10.68;;;;;;;;;;8386332;28;20243;-91
2023/08/24 20:54:28;;;;;;;13.63;10.82;;;;;;;;;;8399931;28;20186;-92
2023/08/24 20:58:31;;;;;;;14.90;12.02;;;;;;;;;;8399814;28;20454;-91
2023/08/24 21:02:35;;;;;;;17.42;12.60;;;;;;;;;;8359870;28;20441;-91
2023/08/24 21:06:38;;;;;;;16.33;12.98;;;;;;;;;;8372444;28;20061;-89
2023/08/24 21:10:42;;;;;;;15.68;11.98;;;;;;;;;;8373121;28;20063;-91
2023/08/24 21:14:45;;;;;;;16.95;12.60;;;;;;;;;;8398968;28;20063;-92
2023/08/24 21:18:49;;;;;;;16.83;12.93;;;;;;;;;;8380819;28;20073;-91
2023/08/24 21:22:52;;;;;;;14.20;11.65;;;;;;;;;;8393220;28;20106;-91
2023/08/24 21:26:55;;;;;;;18.02;13.10;;;;;;;;;;8399333;28;20071;-92
2023/08/24 21:31:02;;;;;;;20.67;14.25;;;;;;;;;;8371886;28;20106;-89
2023/08/24 21:35:07;;;;;;;19.25;13.70;;;;;;;;;;8392545;28;20063;-92
2023/08/24 21:39:11;;;;;;;18.98;13.75;;;;;;;;;;8374358;28;20053;-91
2023/08/24 21:43:14;;;;;;;20.15;14.55;;;;;;;;;;8378505;28;20061;-91
2023/08/24 21:47:17;;;;;;;16.98;12.82;;;;;;;;;;8347713;28;20432;-91
2023/08/24 21:51:21;;;;;;;19.05;13.40;;;;;;;;;;8385719;28;20147;-91
2023/08/24 21:55:25;;;;;;;17.50;12.27;;;;;;;;;;8398103;28;20576;-88
2023/08/24 21:59:28;;;;;;;17.38;12.27;;;;;;;;;;8372670;28;20191;-90
2023/08/24 22:03:31;;;;;;;16.27;12.68;;;;;;;;;;8391316;28;20139;-91
2023/08/24 22:07:37;;;;;;;18.23;13.07;;;;;;;;;;8388133;28;20484;-91
2023/08/24 22:11:40;;;;;;;21.15;13.52;;;;;;;;;;8377462;28;20081;-90
2023/08/24 22:15:43;;;;;;;16.50;12.13;;;;;;;;;;8361150;28;20501;-90
2023/08/24 22:19:45;;;;;;;20.45;12.50;;;;;;;;;;8373035;28;20049;-89
2023/08/24 22:23:51;;;;;;;20.27;13.18;;;;;;;;;;8360099;28;20106;-90
2023/08/24 22:27:55;;;;;;;17.60;13.27;;;;;;;;;;8350797;28;20073;-88
2023/08/24 22:31:58;;;;;;;16.38;12.85;;;;;;;;;;8383876;28;20469;-90
2023/08/24 22:36:01;;;;;;;20.45;13.13;;;;;;;;;;8386868;28;20386;-91
2023/08/24 22:40:09;;;;;;;16.48;13.75;;;;;;;;;;8364208;28;20144;-91
2023/08/24 22:44:11;;;;;;;17.65;13.75;;;;;;;;;;8375113;28;20450;-91
2023/08/24 22:48:14;;;;;;;17.90;14.63;;;;;;;;;;8396980;28;20105;-92
2023/08/24 22:52:17;;;;;;;21.50;14.65;;;;;;;;;;8380342;28;20455;-92
2023/08/24 22:56:22;;;;;;;19.02;13.95;;;;;;;;;;8384809;28;20486;-92
2023/08/24 23:00:25;;;;;;;16.73;13.02;;;;;;;;;;8383462;28;20056;-91
2023/08/24 23:04:27;;;;;;;15.45;12.50;;;;;;;;;;8395634;28;20057;-91
2023/08/24 23:08:30;;;;;;;15.05;11.82;;;;;;;;;;8383295;28;20132;-92
2023/08/24 23:12:34;;;;;;;16.85;11.95;;;;;;;;;;8374267;28;20072;-91
2023/08/24 23:16:38;;;;;;;15.73;12.40;;;;;;;;;;8363198;28;20556;-92
2023/08/24 23:20:41;;;;;;;17.05;11.68;;;;;;;;;;8362936;28;20057;-90
2023/08/24 23:24:43;;;;;;;14.80;12.70;;;;;;;;;;8362671;28;20053;-92
2023/08/24 23:28:47;;;;;;;16.83;12.20;;;;;;;;;;8362846;28;20497;-92
2023/08/24 23:32:50;;;;;;;17.13;13.02;;;;;;;;;;8360329;28;20044;-91
2023/08/24 23:36:53;;;;;;;16.55;12.65;;;;;;;;;;8352247;28;20560;-91
2023/08/24 23:40:58;;;;;;;17.40;12.25;;;;;;;;;;8362291;28;20048;-91
2023/08/24 23:45:03;;;;;;;17.77;13.50;;;;;;;;;;8362515;28;20500;-91
2023/08/24 23:49:06;;;;;;;19.60;13.77;;;;;;;;;;8362776;28;20056;-92
2023/08/24 23:53:09;;;;;;;17.02;12.32;;;;;;;;;;8362271;28;20128;-92
2023/08/24 23:57:12;;;;;;;15.27;11.95;;;;;;;;;;8362551;28;20057;-92
